Time;durP1;ratioP1;P1;durP2;ratioP2;P2;SDS_P1;SDS_P2;PMS_P1;PMS_P2;Temp;Humidity;BMP_temperature;BMP_pressure;BME280_temperature;BME280_humidity;BME280_pressure;Samples;Min_cycle;Max_cycle;Signal;HPM_P1;HPM_P2
2021/08/03 00:02:21;;;;;;;3.55;1.73;;;13.00;99.90;;;;;;5033441;28;20061;-62
2021/08/03 00:04:49;;;;;;;3.05;2.15;;;13.00;99.90;;;;;;5032575;28;20033;-62
2021/08/03 00:07:21;;;;;;;2.90;2.10;;;13.00;99.90;;;;;;5028627;28;20029;-63
2021/08/03 00:09:48;;;;;;;2.60;2.17;;;13.00;99.90;;;;;;5028651;28;20078;-63
2021/08/03 00:12:16;;;;;;;4.78;2.45;;;13.00;99.90;;;;;;5031545;28;20029;-63
2021/08/03 00:14:48;;;;;;;2.22;1.95;;;13.00;99.90;;;;;;5032766;28;20116;-62
2021/08/03 00:17:17;;;;;;;2.72;2.22;;;13.00;99.90;;;;;;5031560;28;20022;-63
2021/08/03 00:19:44;;;;;;;2.50;1.90;;;13.10;99.90;;;;;;5034697;28;20108;-62
2021/08/03 00:22:10;;;;;;;2.15;1.95;;;13.10;99.90;;;;;;5033750;28;20025;-63
2021/08/03 00:24:37;;;;;;;5.57;1.70;;;13.20;99.90;;;;;;5034322;28;20030;-62
2021/08/03 00:27:05;;;;;;;3.22;1.52;;;13.20;99.90;;;;;;5046052;28;20130;-62
2021/08/03 00:29:31;;;;;;;3.70;1.88;;;13.20;99.90;;;;;;5041691;28;20037;-62
2021/08/03 00:31:58;;;;;;;2.17;1.80;;;13.30;99.90;;;;;;5034270;28;20056;-66
2021/08/03 00:34:24;;;;;;;1.63;1.40;;;13.30;99.90;;;;;;5034406;28;20037;-63
2021/08/03 00:36:50;;;;;;;2.17;1.70;;;13.30;99.90;;;;;;5035733;28;20040;-62
2021/08/03 00:39:16;;;;;;;2.45;1.48;;;13.40;99.90;;;;;;5035359;28;20092;-62
2021/08/03 00:41:55;;;;;;;1.70;1.60;;;13.40;99.90;;;;;;5035291;28;20033;-62
2021/08/03 00:44:46;;;;;;;2.17;1.60;;;13.30;99.90;;;;;;5048964;28;20029;-62
2021/08/03 00:47:13;;;;;;;3.05;1.75;;;13.40;99.90;;;;;;5051721;28;20029;-63
2021/08/03 00:49:39;;;;;;;1.70;1.60;;;13.40;99.90;;;;;;5034977;28;20036;-63
2021/08/03 00:52:07;;;;;;;2.17;1.73;;;13.30;99.90;;;;;;5033035;28;20449;-63
2021/08/03 00:54:33;;;;;;;2.60;1.83;;;13.40;99.90;;;;;;5034023;28;20375;-63
2021/08/03 00:56:59;;;;;;;3.95;2.47;;;13.30;99.90;;;;;;5040367;28;20032;-64
2021/08/03 00:59:25;;;;;;;4.05;1.85;;;13.40;99.90;;;;;;5044717;28;20035;-63
2021/08/03 01:01:50;;;;;;;2.15;1.90;;;13.40;99.90;;;;;;5034166;28;20029;-63
2021/08/03 01:04:17;;;;;;;5.90;2.00;;;13.40;99.90;;;;;;5050453;28;20029;-63
2021/08/03 01:07:03;;;;;;;2.40;2.20;;;13.50;99.90;;;;;;5040194;28;20033;-63
2021/08/03 01:09:37;;;;;;;2.97;1.60;;;13.50;99.90;;;;;;5033744;28;20057;-63
2021/08/03 01:12:48;;;;;;;2.65;1.73;;;13.50;99.90;;;;;;5032935;28;20048;-64
2021/08/03 01:15:18;;;;;;;2.15;1.92;;;13.50;99.90;;;;;;5027404;28;20044;-63
2021/08/03 01:17:48;;;;;;;3.50;2.03;;;13.60;99.90;;;;;;5052347;28;20036;-63
2021/08/03 01:20:24;;;;;;;2.42;1.77;;;13.60;99.90;;;;;;5050877;28;20037;-63
2021/08/03 01:23:11;;;;;;;2.22;2.03;;;13.60;99.90;;;;;;5053000;28;20021;-63
2021/08/03 01:25:45;;;;;;;3.17;2.30;;;13.60;99.90;;;;;;5040689;28;20036;-63
2021/08/03 01:28:24;;;;;;;3.50;1.90;;;13.70;99.90;;;;;;5036955;28;20100;-62
2021/08/03 01:30:58;;;;;;;2.60;2.10;;;13.70;99.90;;;;;;5037879;28;20079;-62
2021/08/03 01:33:27;;;;;;;2.15;1.95;;;13.70;99.90;;;;;;5031662;28;20079;-62
2021/08/03 01:35:56;;;;;;;4.35;2.10;;;13.70;99.90;;;;;;5031606;28;20025;-63
2021/08/03 01:38:23;;;;;;;3.47;2.20;;;13.60;99.90;;;;;;5030177;28;20046;-62
2021/08/03 01:40:52;;;;;;;5.45;1.98;;;13.70;99.90;;;;;;5032633;28;20052;-62
2021/08/03 01:43:18;;;;;;;2.97;2.05;;;13.60;99.90;;;;;;5033190;28;20033;-62
2021/08/03 01:45:47;;;;;;;2.00;1.90;;;13.60;99.90;;;;;;5035221;28;20065;-63
2021/08/03 01:48:13;;;;;;;10.53;2.20;;;13.60;99.90;;;;;;5042864;28;20642;-63
2021/08/03 01:50:40;;;;;;;3.40;1.95;;;13.50;99.90;;;;;;5049087;28;20275;-63
2021/08/03 01:53:07;;;;;;;2.20;2.00;;;13.50;99.90;;;;;;5041146;28;20037;-63
2021/08/03 01:55:33;;;;;;;3.05;1.88;;;13.40;99.90;;;;;;5032903;28;20084;-63
2021/08/03 01:58:00;;;;;;;1.83;1.73;;;13.30;99.90;;;;;;5033938;28;20033;-63
2021/08/03 02:00:25;;;;;;;5.47;2.55;;;13.30;99.90;;;;;;5032217;28;20030;-63
2021/08/03 02:02:52;;;;;;;3.17;2.35;;;13.30;99.90;;;;;;5043770;28;20024;-63
2021/08/03 02:05:18;;;;;;;6.05;2.42;;;13.20;99.90;;;;;;5041409;28;20029;-63
2021/08/03 02:07:45;;;;;;;7.00;2.20;;;13.20;99.90;;;;;;5032079;28;20041;-63
2021/08/03 02:10:11;;;;;;;2.58;2.35;;;13.10;99.90;;;;;;5031835;28;20036;-63
2021/08/03 02:12:37;;;;;;;4.45;2.50;;;13.10;99.90;;;;;;5040074;28;20082;-63
2021/08/03 02:15:05;;;;;;;4.13;2.72;;;13.10;99.90;;;;;;5032409;28;20025;-64
2021/08/03 02:17:31;;;;;;;3.72;2.63;;;13.10;99.90;;;;;;5036642;28;20156;-63
2021/08/03 02:19:57;;;;;;;2.10;1.90;;;13.20;99.90;;;;;;5029008;28;20027;-63
2021/08/03 02:22:23;;;;;;;2.30;2.10;;;13.20;99.90;;;;;;5043424;28;20629;-63
2021/08/03 02:24:48;;;;;;;2.45;2.13;;;13.10;99.90;;;;;;5032312;28;20425;-63
2021/08/03 02:27:14;;;;;;;3.55;2.03;;;13.10;99.90;;;;;;5031348;28;20463;-63
2021/08/03 02:29:43;;;;;;;2.40;1.98;;;13.10;99.90;;;;;;5032100;28;20033;-63
2021/08/03 02:32:16;;;;;;;3.10;2.33;;;13.20;99.90;;;;;;5044523;28;20033;-63
2021/08/03 02:34:55;;;;;;;2.17;1.88;;;13.20;99.90;;;;;;5050176;28;20466;-63
2021/08/03 02:37:26;;;;;;;2.65;2.05;;;13.20;99.90;;;;;;5039873;28;20029;-63
2021/08/03 02:39:54;;;;;;;5.45;2.38;;;13.30;99.90;;;;;;5033322;28;20053;-63
2021/08/03 02:42:20;;;;;;;2.22;1.73;;;13.30;99.90;;;;;;5032813;28;20029;-63
2021/08/03 02:44:53;;;;;;;2.28;2.00;;;13.50;99.90;;;;;;5039945;28;20519;-63
2021/08/03 02:47:25;;;;;;;3.25;2.13;;;13.50;99.90;;;;;;5039907;28;20393;-63
2021/08/03 02:49:52;;;;;;;2.53;1.95;;;13.50;99.90;;;;;;5050122;28;20033;-63
2021/08/03 02:52:20;;;;;;;2.38;2.00;;;13.50;99.90;;;;;;5041555;28;20462;-63
2021/08/03 02:54:53;;;;;;;4.32;1.80;;;13.40;99.90;;;;;;5050641;28;20029;-63
2021/08/03 02:57:20;;;;;;;3.80;1.90;;;13.40;99.90;;;;;;5050372;28;20108;-62
2021/08/03 02:59:52;;;;;;;2.95;1.88;;;13.40;99.90;;;;;;5036895;28;20091;-62
2021/08/03 03:02:18;;;;;;;1.85;1.75;;;13.40;99.90;;;;;;5041824;28;20466;-63
2021/08/03 03:05:15;;;;;;;4.70;1.90;;;13.40;99.90;;;;;;5033628;28;20426;-63
2021/08/03 03:07:47;;;;;;;3.20;2.17;;;13.40;99.90;;;;;;5030995;28;20049;-63
2021/08/03 03:10:18;;;;;;;3.22;2.28;;;13.40;99.90;;;;;;5034394;28;20108;-63
2021/08/03 03:12:50;;;;;;;3.70;1.80;;;13.30;99.90;;;;;;5041516;28;20409;-63
2021/08/03 03:15:18;;;;;;;2.65;1.83;;;13.30;99.90;;;;;;5041524;28;20414;-63
2021/08/03 03:17:45;;;;;;;2.33;1.98;;;13.30;99.90;;;;;;5034193;28;20033;-62
2021/08/03 03:20:13;;;;;;;2.13;1.95;;;13.30;99.90;;;;;;5043148;28;20035;-62
2021/08/03 03:22:43;;;;;;;2.67;1.95;;;13.30;99.90;;;;;;5041793;28;20519;-63
2021/08/03 03:25:16;;;;;;;2.30;1.85;;;13.30;99.90;;;;;;5026063;28;20466;-63
2021/08/03 03:27:43;;;;;;;2.42;2.05;;;13.20;99.90;;;;;;5050454;28;20091;-63
2021/08/03 03:30:12;;;;;;;4.57;2.20;;;13.20;99.90;;;;;;5046199;28;20063;-63
2021/08/03 03:32:38;;;;;;;6.77;2.57;;;13.10;99.90;;;;;;5034660;28;20471;-63
2021/08/03 03:35:06;;;;;;;2.17;2.05;;;13.10;99.90;;;;;;5031188;28;20034;-64
2021/08/03 03:37:33;;;;;;;3.75;2.03;;;13.10;99.90;;;;;;5031534;28;20475;-63
2021/08/03 03:39:59;;;;;;;1.92;1.67;;;13.10;99.90;;;;;;5033241;28;20129;-63
2021/08/03 03:42:34;;;;;;;1.65;1.55;;;13.00;99.90;;;;;;5031774;28;20112;-63
2021/08/03 03:45:01;;;;;;;1.50;1.40;;;13.00;99.90;;;;;;5028970;28;20483;-63
2021/08/03 03:47:34;;;;;;;3.92;1.80;;;12.90;99.90;;;;;;5032933;28;20124;-63
2021/08/03 03:50:06;;;;;;;2.03;1.55;;;12.90;99.90;;;;;;5030981;28;20033;-63
2021/08/03 03:52:39;;;;;;;3.95;1.75;;;12.90;99.90;;;;;;5030399;28;20490;-63
2021/08/03 03:55:07;;;;;;;2.97;1.95;;;12.90;99.90;;;;;;5033508;28;20033;-64
2021/08/03 03:57:36;;;;;;;2.92;1.70;;;12.90;99.90;;;;;;5037989;28;20044;-63
2021/08/03 04:00:02;;;;;;;2.08;1.75;;;12.90;99.90;;;;;;5038020;28;20115;-63
2021/08/03 04:02:30;;;;;;;1.40;1.27;;;12.90;99.90;;;;;;5034596;28;20798;-63
2021/08/03 04:04:59;;;;;;;3.10;1.60;;;12.90;99.90;;;;;;5033425;28;20053;-63
2021/08/03 04:07:26;;;;;;;2.58;1.40;;;12.90;99.90;;;;;;5036049;28;20131;-63
2021/08/03 04:10:06;;;;;;;3.65;1.70;;;12.90;99.90;;;;;;5037040;28;20045;-63
2021/08/03 04:12:31;;;;;;;2.85;1.20;;;12.90;99.90;;;;;;5036343;28;20025;-63
2021/08/03 04:14:57;;;;;;;7.22;1.80;;;12.90;99.90;;;;;;5034778;28;20036;-63
2021/08/03 04:17:22;;;;;;;1.35;1.25;;;12.90;99.90;;;;;;5035463;28;20079;-63
2021/08/03 04:19:48;;;;;;;2.33;1.70;;;13.00;99.90;;;;;;5036677;28;20025;-63
2021/08/03 04:22:14;;;;;;;3.55;1.65;;;13.00;99.90;;;;;;5033457;28;20029;-63
2021/08/03 04:24:39;;;;;;;1.92;1.42;;;13.10;99.90;;;;;;5034105;28;20208;-63
2021/08/03 04:27:05;;;;;;;2.05;1.45;;;13.10;99.90;;;;;;5034017;28;20112;-64
2021/08/03 04:29:31;;;;;;;3.47;1.30;;;13.20;99.90;;;;;;5034568;28;20084;-63
2021/08/03 04:31:58;;;;;;;3.15;1.40;;;13.20;99.90;;;;;;5034665;28;20534;-63
2021/08/03 04:34:23;;;;;;;2.05;1.38;;;13.40;99.90;;;;;;5033021;28;20056;-63
2021/08/03 04:36:49;;;;;;;2.83;1.60;;;13.40;99.90;;;;;;5031792;28;20029;-63
2021/08/03 04:39:15;;;;;;;1.83;1.20;;;13.50;99.90;;;;;;5031615;28;20494;-64
2021/08/03 04:41:41;;;;;;;3.50;1.70;;;13.60;99.90;;;;;;5035920;28;20034;-64
2021/08/03 04:44:07;;;;;;;1.48;1.23;;;13.70;99.90;;;;;;5035888;28;20036;-64
2021/08/03 04:46:33;;;;;;;5.57;1.48;;;13.80;99.90;;;;;;5035791;28;20560;-63
2021/08/03 04:48:59;;;;;;;1.85;1.52;;;13.90;99.90;;;;;;5033847;28;20030;-63
2021/08/03 04:51:24;;;;;;;1.90;1.50;;;13.90;99.90;;;;;;5035809;28;20517;-63
2021/08/03 04:53:50;;;;;;;2.75;1.73;;;13.90;99.90;;;;;;5034668;28;20030;-63
2021/08/03 04:56:15;;;;;;;2.60;1.70;;;13.90;99.90;;;;;;5035046;28;20025;-63
2021/08/03 04:58:41;;;;;;;4.45;2.00;;;13.90;99.90;;;;;;5036203;28;20360;-63
2021/08/03 05:01:07;;;;;;;4.60;1.88;;;13.90;99.90;;;;;;5034132;28;20543;-64
2021/08/03 05:03:33;;;;;;;4.05;1.40;;;14.00;99.90;;;;;;5032426;28;20036;-63
2021/08/03 05:05:59;;;;;;;4.95;2.25;;;14.00;99.90;;;;;;5031961;28;20390;-63
2021/08/03 05:08:24;;;;;;;2.92;2.20;;;14.00;99.90;;;;;;5032534;28;20045;-62
2021/08/03 05:10:50;;;;;;;2.55;1.95;;;14.10;99.90;;;;;;5032859;28;20052;-63
2021/08/03 05:13:16;;;;;;;4.28;2.00;;;14.10;99.90;;;;;;5031227;28;20066;-63
2021/08/03 05:15:41;;;;;;;5.97;2.13;;;14.10;99.90;;;;;;5036212;28;20448;-63
2021/08/03 05:18:07;;;;;;;5.13;2.08;;;14.10;99.90;;;;;;5035433;28;20037;-64
2021/08/03 05:20:33;;;;;;;4.30;2.60;;;14.10;99.90;;;;;;5032617;28;20386;-63
2021/08/03 05:22:58;;;;;;;3.72;1.58;;;14.10;99.90;;;;;;5041892;28;20513;-63
2021/08/03 05:25:25;;;;;;;6.05;2.35;;;14.10;99.90;;;;;;5036767;28;20031;-63
2021/08/03 05:27:51;;;;;;;3.97;1.88;;;14.10;99.90;;;;;;5052339;28;20120;-63
2021/08/03 05:30:16;;;;;;;6.35;1.90;;;14.20;99.90;;;;;;5043609;28;20117;-63
2021/08/03 05:32:42;;;;;;;3.63;1.75;;;14.20;99.90;;;;;;5043038;28;20104;-63
2021/08/03 05:35:08;;;;;;;5.10;1.98;;;14.20;99.90;;;;;;5041297;28;20534;-63
2021/08/03 05:37:34;;;;;;;1.60;1.50;;;14.20;99.90;;;;;;5044859;28;20080;-63
2021/08/03 05:40:02;;;;;;;2.67;1.80;;;14.20;99.90;;;;;;5032959;28;20513;-63
2021/08/03 05:42:28;;;;;;;5.55;2.08;;;14.20;99.90;;;;;;5044724;28;20033;-66
2021/08/03 05:44:54;;;;;;;4.78;2.15;;;14.20;99.90;;;;;;5052258;28;20429;-65
2021/08/03 05:47:19;;;;;;;3.58;1.70;;;14.30;99.90;;;;;;5037110;28;20076;-65
2021/08/03 05:49:45;;;;;;;2.03;1.45;;;14.30;99.90;;;;;;5032848;28;20445;-65
2021/08/03 05:52:11;;;;;;;5.32;1.63;;;14.40;99.90;;;;;;5038932;28;20025;-65
2021/08/03 05:54:36;;;;;;;2.97;1.40;;;14.50;99.90;;;;;;5046785;28;20056;-66
2021/08/03 05:57:02;;;;;;;3.50;1.67;;;14.50;99.90;;;;;;5037763;28;20493;-72
2021/08/03 05:59:28;;;;;;;2.70;1.42;;;14.60;99.90;;;;;;5032017;28;20423;-67
2021/08/03 06:01:53;;;;;;;2.60;1.13;;;14.60;99.90;;;;;;5041574;28;20498;-66
2021/08/03 06:04:19;;;;;;;1.48;1.38;;;14.70;99.90;;;;;;5032859;28;20386;-66
2021/08/03 06:06:48;;;;;;;5.00;1.90;;;14.70;99.90;;;;;;5031757;28;20090;-65
2021/08/03 06:09:14;;;;;;;3.97;1.60;;;14.90;99.90;;;;;;5034715;28;20032;-66
2021/08/03 06:11:51;;;;;;;2.10;1.45;;;15.00;99.90;;;;;;5035140;28;20044;-66
2021/08/03 06:14:40;;;;;;;3.35;1.45;;;15.10;99.90;;;;;;5035808;28;20025;-66
2021/08/03 06:17:08;;;;;;;4.07;1.75;;;15.30;99.90;;;;;;5038132;28;20026;-66
2021/08/03 06:19:54;;;;;;;1.85;1.02;;;15.50;99.90;;;;;;5031713;28;20029;-65
2021/08/03 06:22:21;;;;;;;2.22;1.25;;;15.60;99.90;;;;;;5029882;28;20374;-65
2021/08/03 06:24:49;;;;;;;1.75;1.25;;;15.70;99.90;;;;;;5034039;28;20041;-67
2021/08/03 06:27:18;;;;;;;1.60;1.15;;;15.80;99.90;;;;;;5036347;28;20029;-62
2021/08/03 06:29:44;;;;;;;5.50;1.70;;;15.90;99.90;;;;;;5033656;28;20029;-66
2021/08/03 06:32:11;;;;;;;3.88;1.33;;;16.00;99.90;;;;;;5031461;28;20033;-69
2021/08/03 06:34:39;;;;;;;3.65;1.42;;;16.10;99.90;;;;;;5036708;28;20100;-63
2021/08/03 06:37:04;;;;;;;1.45;1.13;;;16.20;99.90;;;;;;5050601;28;20040;-65
2021/08/03 06:39:30;;;;;;;4.45;1.67;;;16.20;99.90;;;;;;5048748;28;20053;-63
2021/08/03 06:42:01;;;;;;;3.90;1.00;;;16.30;99.90;;;;;;5047413;28;20036;-63
2021/08/03 06:44:43;;;;;;;1.60;1.45;;;16.40;99.90;;;;;;5038602;28;20075;-63
2021/08/03 06:47:11;;;;;;;7.80;1.60;;;16.60;99.90;;;;;;5049911;28;20033;-63
2021/08/03 06:49:46;;;;;;;3.70;1.35;;;16.90;99.90;;;;;;5051254;28;20068;-63
2021/08/03 06:52:13;;;;;;;7.80;2.30;;;17.10;99.90;;;;;;5049102;28;20029;-64
2021/08/03 06:54:42;;;;;;;1.30;1.20;;;17.30;99.90;;;;;;5043256;28;20024;-64
2021/08/03 06:57:11;;;;;;;6.55;1.80;;;17.50;99.90;;;;;;5049122;28;20029;-64
2021/08/03 06:59:46;;;;;;;3.67;1.73;;;17.80;99.90;;;;;;5032878;28;20105;-63
2021/08/03 07:02:21;;;;;;;2.90;1.77;;;17.90;99.90;;;;;;5030850;28;20033;-65
2021/08/03 07:04:58;;;;;;;1.95;1.23;;;18.00;99.90;;;;;;5039269;28;20472;-64
2021/08/03 07:07:24;;;;;;;1.70;1.42;;;18.00;99.90;;;;;;5031799;28;20034;-64
2021/08/03 07:09:51;;;;;;;1.52;1.15;;;18.10;99.90;;;;;;5030246;28;20112;-64
2021/08/03 07:12:17;;;;;;;3.05;1.65;;;18.10;99.90;;;;;;5038700;28;20364;-64
2021/08/03 07:14:43;;;;;;;3.65;1.45;;;18.10;99.90;;;;;;5031117;28;20104;-64
2021/08/03 07:17:14;;;;;;;3.83;1.38;;;18.20;99.90;;;;;;5030877;28;20466;-64
2021/08/03 07:19:40;;;;;;;2.03;1.40;;;18.20;99.90;;;;;;5047748;28;20098;-64
2021/08/03 07:22:10;;;;;;;4.30;1.70;;;18.20;99.90;;;;;;5047432;28;20021;-64
2021/08/03 07:24:38;;;;;;;4.43;1.40;;;18.40;99.90;;;;;;5035800;28;20068;-64
2021/08/03 07:27:03;;;;;;;5.50;1.33;;;18.50;99.90;;;;;;5041070;28;20038;-64
2021/08/03 07:29:29;;;;;;;1.17;1.00;;;18.70;99.90;;;;;;5033358;28;20519;-64
2021/08/03 07:31:55;;;;;;;3.97;1.15;;;18.90;98.00;;;;;;5049443;28;20386;-64
2021/08/03 07:34:21;;;;;;;1.90;1.20;;;19.00;97.40;;;;;;5037912;28;20025;-64
2021/08/03 07:36:47;;;;;;;2.70;1.15;;;19.10;97.60;;;;;;5027346;28;20057;-64
2021/08/03 07:39:13;;;;;;;2.30;1.20;;;19.30;97.20;;;;;;5035315;28;20045;-65
2021/08/03 07:41:38;;;;;;;3.25;1.10;;;19.40;96.90;;;;;;5036094;28;20037;-64
2021/08/03 07:44:05;;;;;;;2.20;1.30;;;19.50;96.30;;;;;;5034990;28;20037;-64
2021/08/03 07:46:33;;;;;;;0.98;0.98;;;19.60;94.90;;;;;;5045587;28;20033;-64
2021/08/03 07:49:02;;;;;;;1.77;1.00;;;19.60;93.80;;;;;;5042166;28;20351;-64
2021/08/03 07:51:27;;;;;;;3.17;0.90;;;19.60;94.20;;;;;;5025597;28;20479;-64
2021/08/03 07:53:53;;;;;;;1.38;1.00;;;19.60;95.50;;;;;;5019092;28;20033;-64
2021/08/03 07:56:20;;;;;;;2.60;1.10;;;19.70;94.60;;;;;;5029337;28;20522;-64
2021/08/03 07:58:46;;;;;;;4.00;1.10;;;19.80;95.40;;;;;;5035901;28;20029;-64
2021/08/03 08:01:13;;;;;;;3.42;1.33;;;19.70;94.00;;;;;;5045016;28;20053;-64
2021/08/03 08:03:38;;;;;;;1.27;1.10;;;19.80;94.30;;;;;;5052952;28;20071;-64
2021/08/03 08:06:05;;;;;;;2.10;0.93;;;20.00;93.20;;;;;;5042622;28;20052;-64
2021/08/03 08:08:32;;;;;;;1.58;1.15;;;20.10;94.70;;;;;;5028182;28;20037;-64
2021/08/03 08:10:57;;;;;;;6.82;1.45;;;20.10;93.30;;;;;;5035114;28;20390;-64
2021/08/03 08:13:23;;;;;;;3.05;1.70;;;20.00;95.10;;;;;;5038502;28;20030;-64
2021/08/03 08:15:49;;;;;;;4.40;1.92;;;19.90;96.10;;;;;;5041542;28;20037;-64
2021/08/03 08:18:15;;;;;;;4.45;1.88;;;20.00;96.30;;;;;;5046114;28;20136;-65
2021/08/03 08:20:43;;;;;;;4.65;2.00;;;20.00;95.50;;;;;;5053980;28;20115;-64
2021/08/03 08:23:10;;;;;;;1.23;1.05;;;20.00;96.10;;;;;;5053834;28;20017;-64
2021/08/03 08:25:36;;;;;;;1.20;1.10;;;20.00;96.40;;;;;;5053241;28;20021;-64
2021/08/03 08:28:02;;;;;;;3.05;0.98;;;20.10;93.90;;;;;;5052393;28;20048;-64
2021/08/03 08:30:28;;;;;;;2.78;1.27;;;20.10;92.90;;;;;;5045305;28;20032;-64
2021/08/03 08:32:54;;;;;;;2.70;0.90;;;20.10;92.70;;;;;;5034170;28;20033;-64
2021/08/03 08:35:20;;;;;;;1.30;1.20;;;20.10;92.50;;;;;;5039126;28;20058;-65
2021/08/03 08:37:45;;;;;;;1.60;0.90;;;20.20;92.40;;;;;;5049933;28;20029;-64
2021/08/03 08:40:12;;;;;;;2.42;1.13;;;20.30;92.20;;;;;;5033934;28;20514;-64
2021/08/03 08:42:40;;;;;;;1.45;1.00;;;20.40;92.00;;;;;;5033216;28;20017;-64
2021/08/03 08:45:06;;;;;;;4.38;1.08;;;20.50;92.10;;;;;;5041533;28;20029;-64
2021/08/03 08:47:33;;;;;;;3.30;1.00;;;20.50;92.00;;;;;;5041743;28;20060;-64
2021/08/03 08:50:08;;;;;;;0.90;0.80;;;20.70;91.70;;;;;;5034616;28;20407;-64
2021/08/03 08:52:36;;;;;;;1.00;0.95;;;20.70;91.20;;;;;;5048842;28;20508;-64
2021/08/03 08:55:03;;;;;;;1.98;1.10;;;20.80;91.10;;;;;;5052718;28;20505;-64
2021/08/03 08:57:29;;;;;;;3.30;1.58;;;20.90;91.40;;;;;;5047515;28;20090;-64
2021/08/03 08:59:55;;;;;;;2.63;1.30;;;21.00;91.30;;;;;;5046965;28;20064;-64
2021/08/03 09:02:40;;;;;;;2.22;1.40;;;21.10;91.20;;;;;;5047648;28;20088;-64
2021/08/03 09:05:13;;;;;;;2.35;1.10;;;21.20;91.90;;;;;;5033849;28;20032;-64
2021/08/03 09:07:51;;;;;;;1.83;0.77;;;21.30;90.90;;;;;;5049860;28;20124;-65
2021/08/03 09:10:49;;;;;;;1.92;1.20;;;21.50;90.90;;;;;;5038439;28;20030;-65
2021/08/03 09:13:23;;;;;;;2.20;1.27;;;21.60;89.50;;;;;;5033858;28;20471;-64
2021/08/03 09:15:59;;;;;;;2.72;0.90;;;21.70;89.20;;;;;;5048526;28;20021;-64
2021/08/03 09:18:30;;;;;;;2.17;1.20;;;21.70;86.80;;;;;;5051873;28;20036;-64
2021/08/03 09:20:58;;;;;;;1.30;0.90;;;21.60;86.00;;;;;;5052720;28;20032;-64
2021/08/03 09:24:01;;;;;;;1.92;1.23;;;21.60;86.90;;;;;;5035106;28;20029;-64
2021/08/03 09:26:41;;;;;;;3.75;1.27;;;21.40;88.00;;;;;;5011395;28;20053;-64
2021/08/03 09:29:09;;;;;;;2.73;1.17;;;21.30;87.30;;;;;;5026840;28;20132;-64
2021/08/03 09:31:36;;;;;;;6.10;1.52;;;21.00;88.20;;;;;;5045538;28;20036;-64
2021/08/03 09:34:12;;;;;;;5.95;1.23;;;20.80;90.30;;;;;;5033615;28;20033;-64
2021/08/03 09:36:50;;;;;;;3.40;1.25;;;20.30;91.90;;;;;;5024553;28;20525;-64
2021/08/03 09:39:45;;;;;;;4.53;1.30;;;19.80;94.60;;;;;;5051576;28;20513;-64
2021/08/03 09:42:16;;;;;;;4.63;1.27;;;19.10;97.90;;;;;;5042654;28;20041;-64
2021/08/03 09:44:48;;;;;;;1.67;1.38;;;18.30;99.90;;;;;;5050612;28;20037;-64
2021/08/03 09:47:14;;;;;;;1.55;1.00;;;17.60;99.90;;;;;;5052447;28;20035;-64
2021/08/03 09:49:43;;;;;;;1.83;0.80;;;17.00;99.90;;;;;;5036956;28;20656;-64
2021/08/03 09:52:14;;;;;;;2.47;1.17;;;16.60;99.90;;;;;;5032659;28;20033;-64
2021/08/03 09:54:41;;;;;;;3.95;1.30;;;16.30;99.90;;;;;;5038515;28;20041;-64
2021/08/03 09:57:24;;;;;;;1.05;1.00;;;16.10;99.90;;;;;;5039192;28;20387;-64
2021/08/03 09:59:52;;;;;;;2.20;1.08;;;16.00;99.90;;;;;;5032850;28;20049;-64
2021/08/03 10:02:22;;;;;;;2.30;1.10;;;15.90;99.90;;;;;;5047184;28;20024;-65
2021/08/03 10:04:49;;;;;;;1.85;1.02;;;15.80;99.90;;;;;;5032913;28;20021;-64
2021/08/03 10:07:15;;;;;;;3.05;1.17;;;15.80;99.90;;;;;;5036587;28;20032;-64
2021/08/03 10:09:45;;;;;;;4.70;1.42;;;15.80;99.90;;;;;;5039982;28;20498;-64
2021/08/03 10:12:11;;;;;;;;;;;15.80;99.90;;;;;;5034063;28;20025;-65
2021/08/03 10:14:37;;;;;;;2.08;1.17;;;15.80;99.90;;;;;;5040389;28;19908;-64
2021/08/03 10:17:03;;;;;;;1.35;1.00;;;15.80;99.90;;;;;;5044782;28;20474;-64
2021/08/03 10:19:33;;;;;;;5.28;1.20;;;15.80;99.90;;;;;;5050521;28;20053;-65
2021/08/03 10:22:27;;;;;;;1.15;1.02;;;15.90;99.90;;;;;;5029720;28;20458;-64
2021/08/03 10:25:13;;;;;;;1.13;1.02;;;16.00;99.90;;;;;;5033410;28;20132;-64
2021/08/03 10:27:43;;;;;;;3.05;1.00;;;16.00;99.90;;;;;;5031466;28;20036;-64
2021/08/03 10:30:29;;;;;;;1.33;1.13;;;16.10;99.90;;;;;;5032357;28;20033;-65
2021/08/03 10:32:56;;;;;;;1.75;1.30;;;16.20;99.90;;;;;;5032684;28;20105;-64
2021/08/03 10:35:49;;;;;;;5.88;1.00;;;16.40;99.90;;;;;;5032653;28;20429;-65
2021/08/03 10:38:17;;;;;;;3.25;1.08;;;16.40;99.90;;;;;;5029404;28;20087;-65
2021/08/03 10:40:49;;;;;;;2.33;1.17;;;16.40;99.90;;;;;;5031892;28;20064;-65
2021/08/03 10:43:18;;;;;;;2.15;1.35;;;16.30;99.90;;;;;;5024168;28;20060;-65
2021/08/03 10:45:45;;;;;;;2.73;0.97;;;16.40;99.90;;;;;;5030987;28;20030;-64
2021/08/03 10:48:38;;;;;;;8.65;3.20;;;16.50;99.90;;;;;;5046454;28;20107;-65
2021/08/03 10:51:13;;;;;;;3.17;2.10;;;16.70;99.90;;;;;;5050040;28;20036;-64
2021/08/03 10:54:11;;;;;;;2.47;1.38;;;17.00;99.90;;;;;;5048508;28;20040;-65
2021/08/03 10:56:52;;;;;;;2.33;1.25;;;17.20;99.90;;;;;;5049664;28;20029;-65
2021/08/03 10:59:37;;;;;;;1.40;1.02;;;17.50;99.90;;;;;;5038052;28;20162;-65
2021/08/03 11:02:05;;;;;;;2.15;1.25;;;17.60;99.90;;;;;;5029445;28;20443;-65
2021/08/03 11:04:40;;;;;;;3.92;1.42;;;17.60;99.90;;;;;;5028557;28;20032;-64
2021/08/03 11:07:24;;;;;;;1.85;1.17;;;17.70;99.90;;;;;;5030509;28;20029;-64
2021/08/03 11:09:50;;;;;;;2.00;1.30;;;17.80;99.90;;;;;;5032429;28;20035;-64
2021/08/03 11:12:46;;;;;;;4.15;1.10;;;17.90;99.90;;;;;;5031488;28;20387;-64
2021/08/03 11:15:21;;;;;;;1.58;1.30;;;18.00;99.90;;;;;;5048031;28;20473;-64
2021/08/03 11:17:56;;;;;;;1.50;1.15;;;18.00;99.90;;;;;;5038959;28;20076;-65
2021/08/03 11:20:34;;;;;;;2.22;1.45;;;18.10;99.90;;;;;;5024958;28;20044;-65
2021/08/03 11:23:20;;;;;;;1.67;1.40;;;18.20;99.90;;;;;;5031280;28;20024;-64
2021/08/03 11:25:47;;;;;;;3.45;1.88;;;18.20;99.90;;;;;;5029790;28;20033;-64
2021/08/03 11:28:21;;;;;;;2.30;1.30;;;18.30;99.90;;;;;;5038115;28;20033;-64
2021/08/03 11:30:49;;;;;;;3.45;1.50;;;18.30;99.90;;;;;;5038496;28;20056;-64
2021/08/03 11:33:17;;;;;;;4.03;1.33;;;18.40;99.90;;;;;;5031238;28;20029;-64
2021/08/03 11:35:43;;;;;;;4.80;1.23;;;18.40;99.90;;;;;;5029881;28;20093;-64
2021/08/03 11:38:11;;;;;;;4.63;1.77;;;18.60;99.90;;;;;;5032390;28;20396;-64
2021/08/03 11:40:37;;;;;;;1.98;1.45;;;18.80;99.90;;;;;;5030658;28;20041;-64
2021/08/03 11:43:04;;;;;;;3.75;2.13;;;19.10;99.90;;;;;;5032975;28;20120;-64
2021/08/03 11:45:30;;;;;;;2.42;1.40;;;19.50;99.90;;;;;;5037259;28;20057;-64
2021/08/03 11:48:02;;;;;;;3.95;1.35;;;20.00;99.90;;;;;;5049264;28;20036;-64
2021/08/03 11:50:37;;;;;;;7.15;2.03;;;20.30;99.90;;;;;;5049386;28;20037;-65
2021/08/03 11:53:22;;;;;;;2.75;1.65;;;20.70;99.90;;;;;;5032225;28;20042;-64
2021/08/03 11:55:54;;;;;;;2.05;1.25;;;21.10;99.90;;;;;;5038602;28;20036;-64
2021/08/03 11:58:22;;;;;;;1.70;1.20;;;21.40;99.90;;;;;;5024134;28;20537;-64
2021/08/03 12:00:56;;;;;;;2.67;1.30;;;21.60;99.90;;;;;;5042241;28;20692;-65
2021/08/03 12:03:32;;;;;;;3.50;1.35;;;21.70;99.90;;;;;;5050404;28;20474;-64
2021/08/03 12:06:05;;;;;;;1.30;1.20;;;21.70;97.80;;;;;;5037929;28;20033;-64
2021/08/03 12:08:36;;;;;;;1.55;1.45;;;21.70;94.60;;;;;;5031280;28;20049;-65
2021/08/03 12:11:03;;;;;;;2.25;1.30;;;21.60;94.80;;;;;;5031034;28;20037;-64
2021/08/03 12:13:31;;;;;;;4.45;1.40;;;21.70;93.60;;;;;;5047134;28;20065;-65
2021/08/03 12:15:58;;;;;;;1.42;1.02;;;21.60;93.00;;;;;;5048614;28;20029;-64
2021/08/03 12:18:36;;;;;;;2.03;1.10;;;21.60;92.50;;;;;;5038843;28;20026;-65
2021/08/03 12:21:03;;;;;;;2.75;1.27;;;21.60;92.50;;;;;;5034443;28;20036;-64
2021/08/03 12:23:34;;;;;;;1.20;1.10;;;21.40;93.40;;;;;;5040118;28;20029;-64
2021/08/03 12:26:05;;;;;;;3.63;1.25;;;21.40;93.70;;;;;;5035642;28;20088;-64
2021/08/03 12:28:41;;;;;;;2.25;1.10;;;21.40;92.80;;;;;;5034657;28;20383;-65
2021/08/03 12:31:34;;;;;;;2.90;1.17;;;21.40;92.40;;;;;;5050355;28;20025;-64
2021/08/03 12:34:14;;;;;;;1.38;1.23;;;21.30;91.50;;;;;;5029956;28;20029;-64
2021/08/03 12:36:40;;;;;;;;;;;21.20;91.50;;;;;;5051305;28;20029;-64
2021/08/03 12:39:09;;;;;;;1.60;1.00;;;21.00;91.20;;;;;;5041854;28;20425;-64
2021/08/03 12:41:37;;;;;;;0.98;0.88;;;20.90;91.90;;;;;;5040515;28;20041;-64
2021/08/03 12:44:03;;;;;;;1.90;0.80;;;20.80;91.50;;;;;;5044143;28;20173;-64
2021/08/03 12:46:34;;;;;;;0.93;0.77;;;20.80;91.50;;;;;;5036810;28;20375;-66
2021/08/03 12:48:59;;;;;;;1.33;0.93;;;20.90;91.30;;;;;;5038492;28;20378;-64
2021/08/03 12:51:31;;;;;;;0.77;0.75;;;21.10;91.40;;;;;;5033882;28;20048;-64
2021/08/03 12:54:16;;;;;;;1.17;0.98;;;21.70;88.20;;;;;;5047324;28;20021;-64
2021/08/03 12:56:59;;;;;;;1.45;0.80;;;22.50;83.40;;;;;;5039338;28;20022;-64
2021/08/03 12:59:32;;;;;;;0.88;0.88;;;23.20;80.60;;;;;;5043866;28;20033;-64
2021/08/03 13:01:59;;;;;;;0.90;0.90;;;23.60;79.00;;;;;;5053356;28;20103;-64
2021/08/03 13:04:24;;;;;;;2.53;0.93;;;23.90;77.50;;;;;;5051019;28;20071;-64